Time;durP1;ratioP1;P1;durP2;ratioP2;P2;SDS_P1;SDS_P2;PMS_P1;PMS_P2;Temp;Humidity;BMP_temperature;BMP_pressure;BME280_temperature;BME280_humidity;BME280_pressure;Samples;Min_cycle;Max_cycle;Signal;HPM_P1;HPM_P2
2022/03/14 00:01:24;;;;;;;0.70;0.50;;;11.70;99.90;;;;;;6238988;23;20180;-91
2022/03/14 00:03:58;;;;;;;0.30;0.30;;;11.90;99.90;;;;;;6213326;23;20220;-93
2022/03/14 00:06:29;;;;;;;0.73;0.40;;;11.90;99.90;;;;;;6226510;23;20179;-92
2022/03/14 00:09:07;;;;;;;0.20;0.20;;;12.00;99.90;;;;;;6194702;23;20226;-92
2022/03/14 00:11:39;;;;;;;0.60;0.50;;;12.00;99.90;;;;;;6197743;23;20230;-93
2022/03/14 00:14:10;;;;;;;0.53;0.33;;;11.80;99.90;;;;;;6196198;23;20188;-93
2022/03/14 00:16:47;;;;;;;0.50;0.47;;;11.80;99.90;;;;;;6197461;23;20177;-94
2022/03/14 00:19:20;;;;;;;0.80;0.50;;;11.50;99.90;;;;;;6194863;23;20180;-91
2022/03/14 00:21:51;;;;;;;0.57;0.50;;;11.30;99.90;;;;;;6195757;23;20526;-92
2022/03/14 00:24:25;;;;;;;0.50;0.50;;;11.10;99.90;;;;;;6198921;23;20177;-93
2022/03/14 00:26:58;;;;;;;0.80;0.50;;;10.80;99.90;;;;;;6191837;23;20189;-94
2022/03/14 00:29:30;;;;;;;0.67;0.40;;;10.80;99.90;;;;;;6195695;23;20177;-91
2022/03/14 00:32:01;;;;;;;0.40;0.40;;;11.00;99.90;;;;;;6209193;23;20176;-92
2022/03/14 00:34:32;;;;;;;0.40;0.40;;;11.00;99.90;;;;;;6211652;23;20161;-92
2022/03/14 00:37:03;;;;;;;0.40;0.40;;;10.90;99.90;;;;;;6208497;23;20192;-92
2022/03/14 00:39:36;;;;;;;0.40;0.40;;;10.80;99.90;;;;;;6201552;23;20173;-93
2022/03/14 00:42:09;;;;;;;1.00;0.50;;;10.70;99.90;;;;;;6203696;23;20161;-90
2022/03/14 00:44:41;;;;;;;1.60;0.73;;;10.70;99.90;;;;;;6197243;23;20193;-91
2022/03/14 00:55:20;;;;;;;0.70;0.40;;;10.50;99.90;;;;;;6239780;23;20195;-92
2022/03/14 00:57:52;;;;;;;3.13;0.60;;;10.50;99.90;;;;;;6230188;23;20207;-92
2022/03/14 01:00:23;;;;;;;1.93;0.50;;;10.60;99.90;;;;;;6215394;23;20180;-92
2022/03/14 01:02:58;;;;;;;1.00;0.50;;;10.40;99.90;;;;;;6227909;23;20631;-92
2022/03/14 01:05:33;;;;;;;0.50;0.40;;;10.20;99.90;;;;;;6205053;23;20172;-92
2022/03/14 01:08:06;;;;;;;1.37;0.50;;;10.00;99.90;;;;;;6227825;23;20211;-92
2022/03/14 01:10:39;;;;;;;1.30;0.50;;;9.70;99.90;;;;;;6227750;23;20191;-92
2022/03/14 01:18:28;;;;;;;0.50;0.50;;;9.30;99.90;;;;;;6237195;23;20227;-91
2022/03/14 01:20:59;;;;;;;2.47;0.80;;;9.20;99.90;;;;;;6211222;23;20206;-92
2022/03/14 01:23:34;;;;;;;0.87;0.70;;;9.20;99.90;;;;;;6236027;23;20176;-93
2022/03/14 01:26:09;;;;;;;1.13;0.60;;;9.10;99.90;;;;;;6232289;23;20179;-93
2022/03/14 01:28:40;;;;;;;3.80;3.50;;;9.10;99.90;;;;;;6222427;23;20283;-93
2022/03/14 01:31:11;;;;;;;0.93;0.60;;;9.00;99.90;;;;;;6230851;23;20183;-92
2022/03/14 01:33:42;;;;;;;0.73;0.50;;;9.00;99.90;;;;;;6229368;23;20179;-93
2022/03/14 01:36:13;;;;;;;2.10;0.60;;;8.90;99.90;;;;;;6231478;23;20180;-94
2022/03/14 01:38:44;;;;;;;1.53;0.50;;;8.90;99.90;;;;;;6230595;23;20181;-92
2022/03/14 01:41:22;;;;;;;1.80;0.73;;;8.90;99.90;;;;;;6231223;23;20173;-92
2022/03/14 01:43:53;;;;;;;1.37;0.60;;;8.80;99.90;;;;;;6236484;23;20176;-92
2022/03/14 01:46:24;;;;;;;0.30;0.30;;;8.80;99.90;;;;;;6235199;23;20169;-93
2022/03/14 01:48:56;;;;;;;0.77;0.50;;;8.80;99.90;;;;;;6233647;23;20293;-93
2022/03/14 01:51:41;;;;;;;1.97;1.50;;;8.80;99.90;;;;;;6236464;23;20207;-92
2022/03/14 01:54:15;;;;;;;0.50;0.50;;;8.80;99.90;;;;;;6233762;23;20179;-92
2022/03/14 01:56:50;;;;;;;2.00;0.57;;;8.90;99.90;;;;;;6236092;23;20160;-92
2022/03/14 01:59:21;;;;;;;1.17;0.53;;;8.90;99.90;;;;;;6210527;23;20172;-92
2022/03/14 02:01:52;;;;;;;0.60;0.60;;;8.80;99.90;;;;;;6209048;23;20186;-92
2022/03/14 02:04:23;;;;;;;0.70;0.47;;;8.80;99.90;;;;;;6222388;23;20582;-93
2022/03/14 02:06:57;;;;;;;5.50;1.33;;;8.80;99.90;;;;;;6221861;23;20507;-92
2022/03/14 02:09:28;;;;;;;1.73;0.40;;;8.80;99.90;;;;;;6234161;23;20202;-93
2022/03/14 02:12:11;;;;;;;1.90;0.50;;;8.80;99.90;;;;;;6235710;23;20180;-91
2022/03/14 02:14:42;;;;;;;0.63;0.47;;;8.70;99.90;;;;;;6237917;23;20180;-90
2022/03/14 02:17:14;;;;;;;0.60;0.50;;;8.70;99.90;;;;;;6212875;23;20179;-91
2022/03/14 02:19:46;;;;;;;0.60;0.53;;;8.70;99.90;;;;;;6213439;23;20168;-92
2022/03/14 02:22:19;;;;;;;0.73;0.60;;;8.70;99.90;;;;;;6227518;23;20188;-93
2022/03/14 02:24:52;;;;;;;0.40;0.40;;;8.70;99.90;;;;;;6235846;23;20156;-92
2022/03/14 02:27:24;;;;;;;0.70;0.50;;;8.70;99.90;;;;;;6237479;23;20172;-91
2022/03/14 02:29:57;;;;;;;0.80;0.47;;;8.70;99.90;;;;;;6242463;23;20176;-91
2022/03/14 02:32:29;;;;;;;0.60;0.50;;;8.70;99.90;;;;;;6229797;23;20219;-92
2022/03/14 02:35:00;;;;;;;0.50;0.50;;;8.70;99.90;;;;;;6238557;23;20176;-92
2022/03/14 02:37:34;;;;;;;0.93;0.50;;;8.70;99.90;;;;;;6236146;23;20180;-92
2022/03/14 02:40:07;;;;;;;0.57;0.50;;;8.70;99.90;;;;;;6236756;23;20188;-92
2022/03/14 02:42:38;;;;;;;0.53;0.53;;;8.70;99.90;;;;;;6236508;23;20177;-92
2022/03/14 02:45:11;;;;;;;0.97;0.60;;;8.70;99.90;;;;;;6237307;23;20155;-91
2022/03/14 02:47:42;;;;;;;1.10;0.40;;;8.70;99.90;;;;;;6242334;23;20191;-93
2022/03/14 02:50:14;;;;;;;0.60;0.40;;;8.70;99.90;;;;;;6240506;23;20504;-93
2022/03/14 02:52:49;;;;;;;1.03;0.53;;;8.70;99.90;;;;;;6243592;23;20172;-92
2022/03/14 02:55:21;;;;;;;5.97;0.67;;;8.80;99.90;;;;;;6239252;23;20198;-92
2022/03/14 02:58:00;;;;;;;1.27;0.60;;;8.70;99.90;;;;;;6239001;23;20175;-93
2022/03/14 03:00:35;;;;;;;0.50;0.40;;;8.80;99.90;;;;;;6238847;23;20176;-91
2022/03/14 03:03:07;;;;;;;0.73;0.50;;;8.80;99.90;;;;;;6228941;23;20228;-91
2022/03/14 03:05:43;;;;;;;0.33;0.33;;;8.80;99.90;;;;;;6224456;23;20175;-92
2022/03/14 03:08:16;;;;;;;0.77;0.50;;;8.70;99.90;;;;;;6226762;23;20200;-91
2022/03/14 03:10:48;;;;;;;0.63;0.63;;;8.80;99.90;;;;;;6233513;23;20180;-93
2022/03/14 03:13:20;;;;;;;0.33;0.30;;;8.80;99.90;;;;;;6232621;23;20176;-92
2022/03/14 03:15:53;;;;;;;0.57;0.50;;;8.80;99.90;;;;;;6227776;23;20179;-93
2022/03/14 03:18:25;;;;;;;0.30;0.30;;;8.80;99.90;;;;;;6232998;23;20191;-92
2022/03/14 03:20:57;;;;;;;2.13;0.40;;;8.70;99.90;;;;;;6234348;23;20249;-91
2022/03/14 03:23:31;;;;;;;0.70;0.50;;;8.70;99.90;;;;;;6211319;23;20610;-92
2022/03/14 03:26:02;;;;;;;0.70;0.40;;;8.70;99.90;;;;;;6234523;23;20176;-91
2022/03/14 03:28:35;;;;;;;1.43;0.33;;;8.70;99.90;;;;;;6235126;23;20196;-91
2022/03/14 03:31:08;;;;;;;0.40;0.30;;;8.60;99.90;;;;;;6187727;23;20187;-92
2022/03/14 03:33:42;;;;;;;1.03;0.50;;;8.70;99.90;;;;;;6236820;23;20184;-93
2022/03/14 03:36:13;;;;;;;1.13;1.03;;;8.60;99.90;;;;;;6234885;23;20180;-93
2022/03/14 03:38:46;;;;;;;0.90;0.40;;;8.70;99.90;;;;;;6221955;23;20168;-92
2022/03/14 03:41:19;;;;;;;0.90;0.40;;;8.60;99.90;;;;;;6220890;23;20206;-92
2022/03/14 03:43:50;;;;;;;1.03;0.40;;;8.60;99.90;;;;;;6238270;23;20157;-92
2022/03/14 03:46:21;;;;;;;0.80;0.57;;;8.60;99.90;;;;;;6227187;23;20169;-91
2022/03/14 03:48:53;;;;;;;0.80;0.80;;;8.50;99.90;;;;;;6232314;23;20199;-93
2022/03/14 03:51:24;;;;;;;0.80;0.60;;;8.50;99.90;;;;;;6209311;23;20204;-91
2022/03/14 03:53:58;;;;;;;1.30;0.50;;;8.40;99.90;;;;;;6236042;23;20600;-92
2022/03/14 03:56:30;;;;;;;1.97;1.07;;;8.30;99.90;;;;;;6233745;23;20180;-91
2022/03/14 03:59:02;;;;;;;0.70;0.50;;;8.30;99.90;;;;;;6235429;23;20173;-92
2022/03/14 04:01:34;;;;;;;1.90;1.70;;;8.30;99.90;;;;;;6233962;23;20180;-91
2022/03/14 04:04:07;;;;;;;0.43;0.33;;;8.30;99.90;;;;;;6204879;23;20224;-89
2022/03/14 04:06:39;;;;;;;1.30;0.63;;;8.20;99.90;;;;;;6228858;23;20549;-90
2022/03/14 04:09:14;;;;;;;1.27;0.30;;;8.20;99.90;;;;;;6228533;23;20204;-91
2022/03/14 04:11:45;;;;;;;1.00;0.50;;;8.20;99.90;;;;;;6225270;23;20184;-92
2022/03/14 04:14:17;;;;;;;1.23;0.80;;;8.20;99.90;;;;;;6233511;23;20169;-92
2022/03/14 04:16:48;;;;;;;0.37;0.37;;;8.20;99.90;;;;;;6233323;23;20188;-92
2022/03/14 04:19:19;;;;;;;0.60;0.40;;;8.20;99.90;;;;;;6225829;23;20187;-92
2022/03/14 04:21:52;;;;;;;1.13;1.07;;;8.10;99.90;;;;;;6235060;23;20172;-92
2022/03/14 04:24:25;;;;;;;0.60;0.40;;;8.10;99.90;;;;;;6221850;23;20179;-92
2022/03/14 04:26:57;;;;;;;0.70;0.40;;;8.10;99.90;;;;;;6219798;23;20200;-93
2022/03/14 04:29:28;;;;;;;0.97;0.70;;;8.10;99.90;;;;;;6220727;23;20226;-92
2022/03/14 04:31:59;;;;;;;0.60;0.47;;;8.00;99.90;;;;;;6220842;23;20174;-92
2022/03/14 04:34:31;;;;;;;0.73;0.57;;;8.00;99.90;;;;;;6221066;23;20169;-92
2022/03/14 04:37:02;;;;;;;0.97;0.43;;;8.00;99.90;;;;;;6198276;23;20165;-91
2022/03/14 04:39:36;;;;;;;0.63;0.40;;;7.90;99.90;;;;;;6223405;23;20165;-91
2022/03/14 04:42:08;;;;;;;0.30;0.30;;;7.90;99.90;;;;;;6225170;23;20187;-91
2022/03/14 04:44:41;;;;;;;0.33;0.33;;;7.90;99.90;;;;;;6226337;23;20640;-94
2022/03/14 04:47:13;;;;;;;0.63;0.63;;;7.80;99.90;;;;;;6219202;23;20199;-93
2022/03/14 04:49:44;;;;;;;1.43;0.60;;;7.70;99.90;;;;;;6219649;23;20243;-92
2022/03/14 04:52:15;;;;;;;3.83;0.50;;;7.70;99.90;;;;;;6220448;23;20181;-92
2022/03/14 04:54:47;;;;;;;0.30;0.30;;;7.70;99.90;;;;;;6220832;23;20198;-93
2022/03/14 04:57:19;;;;;;;2.30;0.70;;;7.60;99.90;;;;;;6219374;23;20738;-94
2022/03/14 04:59:50;;;;;;;2.17;0.60;;;7.60;99.90;;;;;;6221001;23;20459;-93
2022/03/14 05:02:23;;;;;;;1.73;0.87;;;7.60;99.90;;;;;;6230669;23;20176;-93
2022/03/14 05:04:54;;;;;;;2.67;0.80;;;7.60;99.90;;;;;;6219344;23;20206;-92
2022/03/14 05:07:25;;;;;;;5.60;1.00;;;7.60;99.90;;;;;;6227161;23;20192;-92
2022/03/14 05:09:59;;;;;;;4.63;1.00;;;7.60;99.90;;;;;;6236584;23;20188;-91
2022/03/14 05:12:34;;;;;;;1.50;0.60;;;7.60;99.90;;;;;;6241571;23;20228;-92
2022/03/14 05:15:04;;;;;;;2.77;0.80;;;7.50;99.90;;;;;;6239913;23;20167;-93
2022/03/14 05:17:36;;;;;;;4.60;1.20;;;7.50;99.90;;;;;;6234161;23;20222;-93
2022/03/14 05:20:08;;;;;;;3.87;0.80;;;7.50;99.90;;;;;;6230858;23;20178;-93
2022/03/14 05:22:44;;;;;;;3.63;0.83;;;7.40;99.90;;;;;;6219316;23;20195;-92
2022/03/14 05:25:16;;;;;;;5.27;1.00;;;7.40;99.90;;;;;;6222802;23;20255;-93
2022/03/14 05:27:48;;;;;;;7.23;1.37;;;7.40;99.90;;;;;;6217996;23;20256;-94
2022/03/14 05:30:18;;;;;;;6.87;2.07;;;7.40;99.90;;;;;;6195992;23;20217;-92
2022/03/14 05:32:49;;;;;;;5.63;1.37;;;7.40;99.90;;;;;;6219170;23;20172;-92
2022/03/14 05:35:20;;;;;;;8.50;1.73;;;7.40;99.90;;;;;;6218985;23;20169;-93
2022/03/14 05:37:52;;;;;;;5.73;1.20;;;7.40;99.90;;;;;;6217525;23;20179;-92
2022/03/14 05:40:26;;;;;;;7.40;1.50;;;7.40;99.90;;;;;;6219536;23;20171;-93
2022/03/14 05:42:58;;;;;;;4.43;1.30;;;7.40;99.90;;;;;;6218656;23;20219;-93
2022/03/14 05:45:28;;;;;;;9.37;1.90;;;7.40;99.90;;;;;;6217901;23;20180;-94
2022/03/14 05:48:00;;;;;;;3.97;1.67;;;7.40;99.90;;;;;;6217400;23;20203;-94
2022/03/14 05:50:31;;;;;;;6.50;2.03;;;7.40;99.90;;;;;;6192618;23;20215;-94
2022/03/14 05:53:03;;;;;;;10.03;1.60;;;7.40;99.90;;;;;;6219267;23;20273;-92
2022/03/14 05:55:38;;;;;;;7.13;1.40;;;7.40;99.90;;;;;;6239885;23;20471;-92
2022/03/14 06:00:52;;;;;;;13.37;2.30;;;7.40;99.90;;;;;;6241927;23;20191;-90
2022/03/14 06:03:23;;;;;;;10.47;1.80;;;7.30;99.90;;;;;;6241807;23;20264;-94
2022/03/14 06:05:54;;;;;;;9.37;2.07;;;7.30;99.90;;;;;;6242505;23;20176;-93
2022/03/14 06:08:25;;;;;;;14.40;2.23;;;7.40;99.90;;;;;;6242514;23;20168;-93
2022/03/14 06:10:58;;;;;;;4.70;1.90;;;7.40;99.90;;;;;;6239305;23;20207;-91
2022/03/14 06:13:29;;;;;;;8.33;2.00;;;7.40;99.90;;;;;;6232057;23;20169;-92
2022/03/14 06:16:00;;;;;;;5.93;1.50;;;7.40;99.90;;;;;;6230364;23;20180;-93
2022/03/14 06:18:31;;;;;;;10.07;2.03;;;7.30;99.90;;;;;;6221841;23;20187;-93
2022/03/14 06:21:03;;;;;;;9.13;2.27;;;7.30;99.90;;;;;;6222176;23;20212;-92
2022/03/14 06:23:34;;;;;;;10.93;2.10;;;7.30;99.90;;;;;;6220973;23;20553;-92
2022/03/14 06:26:06;;;;;;;7.97;2.23;;;7.20;99.90;;;;;;6222378;23;20511;-93
2022/03/14 06:28:37;;;;;;;11.47;2.70;;;7.10;99.90;;;;;;6194807;23;20196;-93
2022/03/14 06:31:11;;;;;;;9.10;1.93;;;7.10;99.90;;;;;;6220124;23;20192;-93
2022/03/14 06:33:42;;;;;;;12.10;2.33;;;7.10;99.90;;;;;;6220441;23;20515;-95
2022/03/14 06:36:13;;;;;;;6.77;2.00;;;7.10;99.90;;;;;;6195812;23;20180;-93
2022/03/14 06:38:45;;;;;;;11.13;2.30;;;7.00;99.90;;;;;;6229911;23;20173;-92
2022/03/14 06:41:19;;;;;;;6.97;5.07;;;7.00;99.90;;;;;;6221423;23;20184;-93
2022/03/14 06:43:52;;;;;;;10.00;2.23;;;7.00;99.90;;;;;;6219835;23;20566;-93
2022/03/14 06:46:25;;;;;;;11.27;2.27;;;7.00;99.90;;;;;;6200188;23;20192;-93
2022/03/14 06:51:32;;;;;;;12.73;2.10;;;6.90;99.90;;;;;;6221851;23;20211;-91
2022/03/14 06:54:04;;;;;;;12.93;2.97;;;6.90;99.90;;;;;;6195917;23;20219;-92
2022/03/14 06:56:41;;;;;;;7.77;2.30;;;6.90;99.90;;;;;;6223502;23;20165;-92
2022/03/14 06:59:12;;;;;;;11.43;2.20;;;6.90;99.90;;;;;;6223805;23;20487;-91
2022/03/14 07:01:43;;;;;;;10.63;2.40;;;6.90;99.90;;;;;;6235160;23;20173;-93
2022/03/14 07:04:14;;;;;;;9.93;2.97;;;6.90;99.90;;;;;;6229002;23;20192;-93
2022/03/14 07:06:46;;;;;;;8.33;2.30;;;6.90;99.90;;;;;;6225981;23;20220;-95
2022/03/14 07:09:17;;;;;;;13.83;2.87;;;6.90;99.90;;;;;;6193877;23;20252;-94
2022/03/14 07:11:51;;;;;;;9.00;2.33;;;6.80;99.90;;;;;;6224918;23;20210;-93
2022/03/14 07:14:24;;;;;;;11.23;5.43;;;6.80;99.90;;;;;;6222497;23;20172;-93
2022/03/14 07:16:55;;;;;;;12.20;3.07;;;6.80;99.90;;;;;;6223646;23;20211;-94
2022/03/14 07:19:26;;;;;;;9.57;1.90;;;6.80;99.90;;;;;;6222845;23;20619;-93
2022/03/14 07:21:57;;;;;;;7.67;2.13;;;6.80;99.90;;;;;;6221790;23;20596;-93
2022/03/14 07:24:28;;;;;;;9.27;2.10;;;6.80;99.90;;;;;;6236128;23;20179;-91
2022/03/14 07:27:02;;;;;;;13.17;2.60;;;6.80;99.90;;;;;;6240978;23;20164;-95
2022/03/14 07:29:33;;;;;;;11.30;2.60;;;6.70;99.90;;;;;;6239880;23;20655;-91
2022/03/14 07:32:04;;;;;;;11.73;3.23;;;6.80;99.90;;;;;;6232856;23;20223;-94
2022/03/14 07:34:36;;;;;;;11.30;2.40;;;6.80;99.90;;;;;;6224853;23;20554;-94
2022/03/14 07:37:07;;;;;;;8.17;2.50;;;6.70;99.90;;;;;;6232978;23;20177;-94
2022/03/14 07:39:39;;;;;;;8.53;2.13;;;6.70;99.90;;;;;;6236814;23;20184;-93
2022/03/14 07:42:12;;;;;;;10.87;2.70;;;6.80;99.90;;;;;;6228106;23;20176;-93
2022/03/14 07:44:43;;;;;;;14.70;3.03;;;6.80;99.90;;;;;;6231019;23;20183;-92
2022/03/14 07:47:15;;;;;;;10.83;1.97;;;6.70;99.90;;;;;;6220248;23;20247;-93
2022/03/14 07:49:47;;;;;;;9.87;2.33;;;6.70;99.90;;;;;;6219790;23;20180;-93
2022/03/14 07:52:18;;;;;;;10.43;2.30;;;6.80;99.90;;;;;;6220748;23;20275;-92
2022/03/14 07:54:50;;;;;;;7.97;2.33;;;6.80;99.90;;;;;;6219787;23;20182;-94
2022/03/14 07:57:23;;;;;;;8.83;2.23;;;6.80;99.90;;;;;;6227339;23;20281;-93
2022/03/14 07:59:54;;;;;;;9.73;2.43;;;6.80;99.90;;;;;;6227158;23;20219;-92
2022/03/14 08:02:25;;;;;;;7.63;2.33;;;6.80;99.90;;;;;;6221150;23;20195;-93
2022/03/14 08:04:57;;;;;;;7.60;1.37;;;6.80;99.90;;;;;;6196895;23;20192;-94
2022/03/14 08:07:28;;;;;;;8.77;2.17;;;6.80;99.90;;;;;;6222050;23;20195;-94
2022/03/14 08:10:02;;;;;;;7.13;1.90;;;6.80;99.90;;;;;;6232818;23;20194;-92
2022/03/14 08:12:48;;;;;;;5.90;1.63;;;6.80;99.90;;;;;;6227195;23;20232;-94
2022/03/14 08:15:24;;;;;;;4.83;1.90;;;6.80;99.90;;;;;;6219721;23;20165;-93
2022/03/14 08:17:57;;;;;;;4.93;1.60;;;6.80;99.90;;;;;;6219653;23;20193;-92
2022/03/14 08:20:29;;;;;;;6.50;1.67;;;6.80;99.90;;;;;;6221213;23;20176;-93
2022/03/14 08:23:02;;;;;;;10.00;1.70;;;6.80;99.90;;;;;;6232743;23;20175;-92
2022/03/14 08:25:34;;;;;;;5.87;1.53;;;6.80;99.90;;;;;;6230459;23;20179;-93
2022/03/14 08:28:07;;;;;;;10.87;2.03;;;6.70;99.90;;;;;;6217892;23;20199;-93
2022/03/14 08:30:39;;;;;;;7.27;1.70;;;6.70;99.90;;;;;;6219544;23;20168;-93
2022/03/14 08:33:10;;;;;;;4.57;1.90;;;6.70;99.90;;;;;;6218745;23;20257;-92
2022/03/14 08:35:41;;;;;;;8.30;1.97;;;6.70;99.90;;;;;;6218887;23;20519;-91
2022/03/14 08:38:13;;;;;;;6.57;1.77;;;6.70;99.90;;;;;;6218524;23;20184;-93
2022/03/14 08:40:44;;;;;;;7.67;1.70;;;6.60;99.90;;;;;;6220250;23;20595;-92
2022/03/14 08:43:18;;;;;;;6.13;1.73;;;6.60;99.90;;;;;;6220057;23;20180;-92
2022/03/14 08:45:49;;;;;;;10.27;2.20;;;6.60;99.90;;;;;;6219928;23;20642;-91
2022/03/14 08:48:20;;;;;;;9.57;1.87;;;6.60;99.90;;;;;;6218313;23;20176;-92
2022/03/14 08:50:52;;;;;;;7.53;1.80;;;6.60;99.90;;;;;;6219220;23;20168;-92
2022/03/14 08:53:23;;;;;;;5.50;1.67;;;6.60;99.90;;;;;;6219427;23;20192;-91
2022/03/14 08:55:55;;;;;;;6.37;1.43;;;6.60;99.90;;;;;;6219222;23;20168;-92
2022/03/14 08:58:31;;;;;;;10.13;2.23;;;6.60;99.90;;;;;;6217803;23;20251;-92
2022/03/14 09:01:03;;;;;;;4.63;1.97;;;6.60;99.90;;;;;;6231768;23;20176;-93
2022/03/14 09:03:34;;;;;;;4.47;1.50;;;6.60;99.90;;;;;;6228905;23;20203;-92
2022/03/14 09:06:05;;;;;;;3.17;1.33;;;6.60;99.90;;;;;;6219375;23;20653;-93
2022/03/14 09:08:37;;;;;;;5.47;1.83;;;6.60;99.90;;;;;;6226013;23;20175;-92
2022/03/14 09:11:08;;;;;;;6.17;1.50;;;6.60;99.90;;;;;;6229272;23;20172;-93
2022/03/14 09:13:40;;;;;;;5.80;1.33;;;6.60;99.90;;;;;;6219780;23;20188;-92
2022/03/14 09:16:12;;;;;;;5.67;1.83;;;6.50;99.90;;;;;;6218501;23;20171;-92
2022/03/14 09:18:43;;;;;;;4.97;1.33;;;6.50;99.90;;;;;;6217956;23;20188;-92
2022/03/14 09:21:14;;;;;;;3.87;1.30;;;6.50;99.90;;;;;;6223978;23;20219;-93
2022/03/14 09:23:46;;;;;;;4.23;1.50;;;6.50;99.90;;;;;;6193034;23;20184;-92
2022/03/14 09:26:17;;;;;;;3.03;1.10;;;6.60;99.90;;;;;;6219872;23;20168;-91
2022/03/14 09:28:50;;;;;;;3.63;1.30;;;6.60;99.90;;;;;;6218287;23;20249;-91
2022/03/14 09:31:21;;;;;;;5.67;1.33;;;6.60;99.90;;;;;;6221020;23;20187;-92
2022/03/14 09:33:53;;;;;;;3.37;0.90;;;6.60;99.90;;;;;;6219722;23;20693;-92
2022/03/14 09:36:24;;;;;;;3.50;1.10;;;6.60;99.90;;;;;;6227259;23;20169;-91
2022/03/14 09:38:56;;;;;;;3.60;1.10;;;6.60;99.90;;;;;;6242929;23;20185;-92
2022/03/14 09:41:32;;;;;;;6.70;1.43;;;6.60;99.90;;;;;;6243718;23;20169;-93
2022/03/14 09:44:06;;;;;;;3.30;0.83;;;6.60;99.90;;;;;;6225376;23;20170;-91
2022/03/14 09:46:39;;;;;;;2.63;1.03;;;6.60;99.90;;;;;;6221559;23;20215;-91
2022/03/14 09:49:14;;;;;;;3.67;1.10;;;6.60;99.90;;;;;;6219733;23;20169;-92
2022/03/14 09:51:48;;;;;;;2.47;1.00;;;6.60;99.90;;;;;;6222455;23;20188;-91
2022/03/14 09:54:20;;;;;;;4.17;1.03;;;6.60;99.90;;;;;;6222216;23;20639;-91
2022/03/14 09:57:01;;;;;;;3.07;0.90;;;6.70;99.90;;;;;;6219242;23;20242;-93
2022/03/14 09:59:33;;;;;;;1.70;0.80;;;6.70;99.90;;;;;;6195541;23;20178;-92
2022/03/14 10:02:04;;;;;;;2.10;0.77;;;6.70;99.90;;;;;;6225079;23;20188;-92
2022/03/14 10:04:35;;;;;;;3.37;1.10;;;6.70;99.90;;;;;;6220900;23;20180;-93
2022/03/14 10:07:08;;;;;;;4.93;0.90;;;6.70;99.90;;;;;;6193315;23;20491;-92
2022/03/14 10:09:39;;;;;;;3.13;1.00;;;6.70;99.90;;;;;;6220741;23;20169;-93
2022/03/14 10:12:12;;;;;;;1.80;0.67;;;6.70;99.90;;;;;;6219330;23;20196;-92
2022/03/14 10:14:46;;;;;;;3.93;0.80;;;6.70;99.90;;;;;;6220548;23;20623;-93
2022/03/14 10:17:17;;;;;;;3.63;0.93;;;6.80;99.90;;;;;;6219197;23;20658;-93
2022/03/14 10:19:56;;;;;;;3.17;0.97;;;6.70;99.90;;;;;;6220117;23;20179;-91
2022/03/14 10:22:34;;;;;;;1.47;0.60;;;6.70;99.90;;;;;;6220627;23;20171;-92
2022/03/14 10:25:09;;;;;;;3.77;0.97;;;6.70;99.90;;;;;;6221556;23;20175;-92
2022/03/14 10:27:43;;;;;;;2.17;0.80;;;6.70;99.90;;;;;;6219600;23;20196;-92
2022/03/14 10:30:28;;;;;;;1.33;0.80;;;6.70;99.90;;;;;;6219822;23;20259;-92
2022/03/14 10:33:04;;;;;;;2.57;0.50;;;6.70;99.90;;;;;;6219489;23;20203;-91
2022/03/14 10:35:36;;;;;;;2.70;0.60;;;6.70;99.90;;;;;;6223885;23;20234;-92
2022/03/14 10:38:08;;;;;;;2.10;0.77;;;6.80;99.90;;;;;;6192915;23;20187;-93
2022/03/14 10:40:40;;;;;;;1.10;0.50;;;6.80;99.90;;;;;;6220548;23;20195;-92
2022/03/14 10:43:26;;;;;;;4.23;1.57;;;6.80;99.90;;;;;;6219531;23;20175;-92
2022/03/14 10:46:00;;;;;;;3.90;0.90;;;6.80;99.90;;;;;;6221535;23;20169;-92
2022/03/14 10:48:38;;;;;;;3.07;0.60;;;6.90;99.90;;;;;;6225733;23;20183;-92
2022/03/14 10:51:10;;;;;;;1.43;0.50;;;6.90;99.90;;;;;;6220961;23;20164;-92
2022/03/14 10:53:43;;;;;;;1.60;0.77;;;6.90;99.90;;;;;;6220002;23;20232;-93
2022/03/14 10:56:14;;;;;;;1.90;0.70;;;6.90;99.90;;;;;;6220608;23;20200;-92
2022/03/14 10:58:45;;;;;;;1.40;0.50;;;6.90;99.90;;;;;;6218743;23;20485;-93
2022/03/14 11:01:17;;;;;;;1.43;1.13;;;6.90;99.90;;;;;;6219621;23;20252;-93
2022/03/14 11:03:48;;;;;;;2.43;0.60;;;6.90;99.90;;;;;;6220365;23;20512;-91
2022/03/14 11:06:19;;;;;;;2.70;0.60;;;6.90;99.90;;;;;;6220055;23;20210;-92
2022/03/14 11:08:51;;;;;;;3.57;0.53;;;6.90;99.90;;;;;;6220284;23;20215;-92
2022/03/14 11:11:24;;;;;;;0.80;0.60;;;6.90;99.90;;;;;;6220178;23;20213;-92
2022/03/14 11:13:57;;;;;;;1.53;0.60;;;6.90;99.90;;;;;;6220157;23;20205;-92
2022/03/14 11:16:34;;;;;;;2.47;0.77;;;6.80;99.90;;;;;;6220113;23;20494;-92
2022/03/14 11:19:05;;;;;;;3.40;0.70;;;6.80;99.90;;;;;;6189575;23;20253;-92
2022/03/14 11:21:37;;;;;;;2.10;0.57;;;6.80;99.90;;;;;;6189886;23;20238;-92
2022/03/14 11:24:09;;;;;;;1.33;0.50;;;6.80;99.90;;;;;;6188883;23;20220;-92
2022/03/14 11:26:46;;;;;;;0.97;0.40;;;7.00;99.90;;;;;;6189935;23;20200;-92
2022/03/14 11:29:17;;;;;;;2.80;1.07;;;7.00;99.90;;;;;;6190536;23;20269;-91
2022/03/14 11:31:52;;;;;;;2.07;0.60;;;7.10;99.90;;;;;;6190861;23;20177;-92
2022/03/14 11:34:26;;;;;;;1.30;0.60;;;7.20;99.90;;;;;;6196532;23;20682;-92
2022/03/14 11:36:58;;;;;;;3.30;0.83;;;7.20;99.90;;;;;;6189829;23;20177;-94
2022/03/14 11:39:30;;;;;;;3.07;0.83;;;7.10;99.90;;;;;;6190582;23;20252;-92
2022/03/14 11:42:01;;;;;;;3.67;0.87;;;7.20;99.90;;;;;;6190764;23;20199;-93
2022/03/14 11:44:32;;;;;;;2.37;0.53;;;7.10;99.90;;;;;;6190726;23;20215;-92
2022/03/14 11:47:06;;;;;;;2.57;0.90;;;7.20;99.90;;;;;;6190221;23;20180;-92
2022/03/14 11:49:38;;;;;;;2.37;0.57;;;7.10;99.90;;;;;;6196628;23;20193;-92
2022/03/14 11:52:11;;;;;;;0.80;0.37;;;7.20;99.90;;;;;;6211969;23;20158;-92
2022/03/14 11:54:48;;;;;;;2.43;0.60;;;7.20;99.90;;;;;;6212013;23;20200;-91
2022/03/14 11:57:36;;;;;;;1.17;0.50;;;7.20;99.90;;;;;;6196405;23;20180;-92
2022/03/14 12:00:35;;;;;;;1.90;0.50;;;7.30;99.90;;;;;;6193239;23;20189;-92
2022/03/14 12:03:30;;;;;;;1.87;0.77;;;7.30;99.90;;;;;;6193834;23;20213;-92
2022/03/14 12:06:00;;;;;;;1.23;0.70;;;7.30;99.90;;;;;;6193687;23;20185;-92
2022/03/14 12:09:01;;;;;;;1.47;0.50;;;7.30;99.90;;;;;;6194084;23;20562;-90
2022/03/14 12:11:43;;;;;;;2.00;0.50;;;7.30;99.90;;;;;;6195267;23;20172;-93
2022/03/14 12:14:15;;;;;;;1.80;0.63;;;7.30;99.90;;;;;;6193239;23;20224;-91
2022/03/14 12:16:48;;;;;;;1.80;0.50;;;7.30;99.90;;;;;;6185831;23;20251;-93
2022/03/14 12:19:42;;;;;;;1.37;0.60;;;7.30;99.90;;;;;;6239681;23;20198;-91
2022/03/14 12:22:15;;;;;;;0.30;0.30;;;7.30;99.90;;;;;;6223539;23;20196;-92
2022/03/14 12:24:50;;;;;;;2.10;0.60;;;7.30;99.90;;;;;;6226879;23;20518;-93
2022/03/14 12:27:29;;;;;;;0.73;0.40;;;7.30;99.90;;;;;;6235946;23;20192;-92
2022/03/14 12:30:04;;;;;;;1.90;0.53;;;7.40;99.90;;;;;;6238915;23;20231;-92
2022/03/14 12:32:42;;;;;;;1.33;0.63;;;7.40;99.90;;;;;;6238793;23;20163;-91
2022/03/14 12:35:33;;;;;;;0.70;0.40;;;7.40;99.90;;;;;;6237211;23;20180;-92
2022/03/14 12:38:16;;;;;;;0.50;0.40;;;7.40;99.90;;;;;;6224820;23;20199;-93
2022/03/14 12:40:48;;;;;;;0.60;0.40;;;7.40;99.90;;;;;;6221033;23;20188;-91
2022/03/14 12:43:31;;;;;;;2.40;0.80;;;7.40;99.90;;;;;;6227226;23;20168;-92
2022/03/14 12:46:04;;;;;;;0.67;0.37;;;7.40;99.90;;;;;;6238304;23;20274;-91
2022/03/14 12:48:35;;;;;;;2.73;0.40;;;7.40;99.90;;;;;;6240440;23;20172;-91
2022/03/14 12:51:09;;;;;;;0.73;0.33;;;7.40;99.90;;;;;;6241768;23;20239;-92
2022/03/14 12:53:44;;;;;;;1.03;0.30;;;7.30;99.90;;;;;;6241874;23;20202;-94
2022/03/14 12:56:19;;;;;;;1.07;0.50;;;7.40;99.90;;;;;;6242050;23;20180;-93
2022/03/14 12:58:59;;;;;;;2.13;0.43;;;7.40;99.90;;;;;;6241789;23;20176;-91
2022/03/14 13:01:32;;;;;;;1.90;0.70;;;7.40;99.90;;;;;;6242035;23;20182;-92
2022/03/14 13:04:05;;;;;;;0.73;0.60;;;7.40;99.90;;;;;;6241976;23;20224;-91
2022/03/14 13:06:40;;;;;;;0.87;0.50;;;7.30;99.90;;;;;;6242229;23;20172;-91
2022/03/14 13:09:11;;;;;;;0.97;0.30;;;7.40;99.90;;;;;;6241418;23;20163;-92
2022/03/14 13:11:43;;;;;;;1.60;0.80;;;7.30;99.90;;;;;;6242365;23;20188;-92
2022/03/14 13:14:17;;;;;;;1.33;0.50;;;7.30;99.90;;;;;;6242063;23;20188;-91
2022/03/14 13:16:54;;;;;;;2.10;0.50;;;7.30;99.90;;;;;;6236585;23;20203;-91
2022/03/14 13:19:26;;;;;;;1.10;0.43;;;7.20;99.90;;;;;;6238708;23;20179;-89
2022/03/14 13:22:14;;;;;;;0.63;0.40;;;7.20;99.90;;;;;;6238895;23;20184;-91
2022/03/14 13:24:48;;;;;;;1.37;0.57;;;7.20;99.90;;;;;;6238062;23;20163;-92
2022/03/14 13:27:24;;;;;;;1.67;0.50;;;7.10;99.90;;;;;;6237022;23;20175;-92
2022/03/14 13:29:55;;;;;;;2.00;0.50;;;7.20;99.90;;;;;;6237465;23;20180;-91
2022/03/14 13:32:26;;;;;;;0.93;0.50;;;7.20;99.90;;;;;;6241262;23;20213;-92
2022/03/14 13:35:14;;;;;;;1.73;0.60;;;7.20;99.90;;;;;;6241274;23;20184;-87
2022/03/14 13:37:48;;;;;;;0.97;0.60;;;7.10;99.90;;;;;;6240891;23;20161;-91
2022/03/14 13:40:22;;;;;;;0.90;0.60;;;7.10;99.90;;;;;;6240390;23;20155;-91
2022/03/14 13:42:54;;;;;;;0.60;0.60;;;7.10;99.90;;;;;;6237902;23;20159;-92
2022/03/14 13:45:26;;;;;;;0.83;0.33;;;7.10;99.90;;;;;;6237375;23;20223;-92